createdAt,value
2019-03-10T00:00:40.014Z,47.27
2019-03-10T00:03:09.505Z,47.56
2019-03-10T00:05:39.040Z,47.98
2019-03-10T00:08:08.650Z,47.89
2019-03-10T00:10:38.140Z,47.70
2019-03-10T00:13:07.611Z,47.65
2019-03-10T00:15:37.067Z,47.74
2019-03-10T00:18:06.541Z,48.02
2019-03-10T00:20:36.107Z,48.37
2019-03-10T00:23:05.556Z,48.40
2019-03-10T00:25:35.036Z,48.10
2019-03-10T00:28:04.585Z,48.33
2019-03-10T00:30:34.060Z,48.18
2019-03-10T00:33:03.556Z,48.39
2019-03-10T00:35:33.070Z,47.99
2019-03-10T00:38:02.587Z,47.86
2019-03-10T00:41:08.257Z,47.83
2019-03-10T00:44:10.178Z,48.23
2019-03-10T00:47:23.557Z,48.37
2019-03-10T00:50:45.096Z,48.81
2019-03-10T00:53:14.607Z,53.52
2019-03-10T00:55:44.159Z,55.16
2019-03-10T00:58:13.666Z,55.60
2019-03-10T01:00:43.178Z,56.31
2019-03-10T01:03:12.704Z,57.05
2019-03-10T01:05:42.156Z,57.06
2019-03-10T01:08:11.676Z,56.84
2019-03-10T01:10:41.178Z,56.74
2019-03-10T01:13:10.728Z,56.20
2019-03-10T01:15:41.442Z,54.49
2019-03-10T01:18:12.932Z,52.95
2019-03-10T01:20:42.645Z,55.06
2019-03-10T01:23:12.200Z,55.92
2019-03-10T01:25:41.635Z,56.30
2019-03-10T01:28:11.187Z,54.22
2019-03-10T01:30:55.526Z,52.78
2019-03-10T01:33:52.940Z,52.81
2019-03-10T01:36:20.678Z,51.25
2019-03-10T01:38:50.133Z,50.81
2019-03-10T01:41:19.609Z,50.16
2019-03-10T01:43:49.055Z,50.04
2019-03-10T01:46:18.561Z,49.86
2019-03-10T01:48:48.022Z,50.05
2019-03-10T01:51:17.491Z,49.54
2019-03-10T01:53:46.987Z,49.84
2019-03-10T01:56:16.511Z,49.75
2019-03-10T01:58:46.006Z,50.45
2019-03-10T02:01:15.526Z,50.04
2019-03-10T02:03:44.995Z,50.12
2019-03-10T02:06:14.499Z,51.81
2019-03-10T02:08:43.946Z,50.81
2019-03-10T02:11:13.470Z,51.37
2019-03-10T02:13:42.971Z,51.63
2019-03-10T02:16:12.442Z,52.19
2019-03-10T02:18:41.908Z,53.53
2019-03-10T02:21:11.395Z,54.31
2019-03-10T02:23:40.896Z,54.85
2019-03-10T02:26:10.404Z,53.58
2019-03-10T02:28:39.918Z,51.69
2019-03-10T02:31:09.444Z,50.67
2019-03-10T02:33:38.934Z,50.17
2019-03-10T02:36:08.386Z,49.50
2019-03-10T02:38:37.854Z,49.20
2019-03-10T02:41:07.345Z,48.80
2019-03-10T02:43:36.827Z,48.60
2019-03-10T02:46:08.059Z,48.83
2019-03-10T02:48:37.607Z,54.28
2019-03-10T02:51:07.139Z,55.53
2019-03-10T02:53:36.636Z,56.80
2019-03-10T02:56:06.204Z,54.77
2019-03-10T02:58:35.668Z,54.57
2019-03-10T03:01:05.153Z,53.76
2019-03-10T03:03:34.608Z,52.46
2019-03-10T03:06:04.114Z,50.82
2019-03-10T03:08:33.639Z,50.10
2019-03-10T03:11:03.051Z,51.04
2019-03-10T03:13:32.516Z,51.70
2019-03-10T03:16:01.985Z,52.17
2019-03-10T03:18:31.542Z,52.33
2019-03-10T03:21:01.035Z,52.54
2019-03-10T03:23:30.571Z,52.45
2019-03-10T03:26:00.084Z,52.48
2019-03-10T03:28:29.572Z,52.00
2019-03-10T03:30:59.076Z,51.20
2019-03-10T03:33:28.650Z,51.31
2019-03-10T03:36:01.341Z,51.11
2019-03-10T03:38:34.930Z,50.71
2019-03-10T03:41:06.895Z,50.18
2019-03-10T03:43:36.392Z,50.44
2019-03-10T03:46:05.858Z,50.56
2019-03-10T03:48:35.353Z,49.78
2019-03-10T03:51:04.887Z,47.58
2019-03-10T03:53:34.389Z,46.80
2019-03-10T03:56:03.874Z,48.05
2019-03-10T03:58:33.344Z,48.20
2019-03-10T04:01:08.868Z,48.34
2019-03-10T04:03:38.374Z,49.09
2019-03-10T04:06:07.880Z,48.70
2019-03-10T04:08:37.326Z,46.02
2019-03-10T04:11:06.833Z,45.33
2019-03-10T04:13:36.297Z,43.98
2019-03-10T04:16:05.812Z,43.72
2019-03-10T04:18:35.307Z,42.96
2019-03-10T04:21:04.791Z,41.98
2019-03-10T04:23:34.263Z,42.54
2019-03-10T04:26:03.736Z,42.72
2019-03-10T04:28:33.219Z,42.33
2019-03-10T04:31:02.670Z,42.14
2019-03-10T04:33:32.148Z,42.08
2019-03-10T04:36:01.607Z,42.19
2019-03-10T04:38:31.119Z,42.17
2019-03-10T04:41:00.627Z,41.87
2019-03-10T04:43:30.135Z,41.95
2019-03-10T04:45:59.642Z,41.91
2019-03-10T04:48:29.156Z,41.68
2019-03-10T04:50:58.652Z,41.77
2019-03-10T04:53:28.142Z,41.61
2019-03-10T04:56:12.315Z,41.74
2019-03-10T04:58:45.712Z,41.97
2019-03-10T05:01:15.244Z,41.58
2019-03-10T05:03:44.752Z,41.60
2019-03-10T05:06:14.303Z,41.91
2019-03-10T05:08:43.787Z,41.68
2019-03-10T05:11:13.332Z,41.70
2019-03-10T05:13:42.809Z,41.41
2019-03-10T05:16:12.318Z,41.52
2019-03-10T05:18:41.834Z,42.30
2019-03-10T05:21:11.369Z,42.00
2019-03-10T05:23:45.225Z,41.83
2019-03-10T05:26:15.935Z,46.04
2019-03-10T05:28:48.889Z,47.97
2019-03-10T05:31:18.473Z,50.27
2019-03-10T05:33:48.014Z,50.71
2019-03-10T05:36:17.526Z,51.33
2019-03-10T05:38:47.326Z,51.42
2019-03-10T05:41:16.821Z,52.52
2019-03-10T05:43:46.279Z,52.73
2019-03-10T05:46:15.788Z,52.77
2019-03-10T05:48:45.296Z,52.70
2019-03-10T05:51:14.840Z,51.96
2019-03-10T05:53:44.365Z,51.88
2019-03-10T05:56:13.966Z,51.31
2019-03-10T05:58:43.497Z,50.95
2019-03-10T06:01:13.221Z,50.32
2019-03-10T06:03:42.933Z,50.32
2019-03-10T06:06:14.389Z,49.78
2019-03-10T06:08:44.028Z,48.92
2019-03-10T06:11:13.706Z,48.91
2019-03-10T06:13:43.328Z,48.25
2019-03-10T06:16:13.035Z,47.70
2019-03-10T06:18:42.693Z,47.17
2019-03-10T06:21:12.330Z,46.19
2019-03-10T06:23:42.021Z,46.66
2019-03-10T06:26:11.574Z,46.08
2019-03-10T06:28:41.129Z,46.23
2019-03-10T06:31:10.694Z,45.11
2019-03-10T06:33:40.212Z,45.53
2019-03-10T06:36:09.729Z,45.74
2019-03-10T06:38:39.251Z,46.08
2019-03-10T06:41:08.749Z,46.29
2019-03-10T06:43:38.264Z,46.60
2019-03-10T06:46:07.829Z,46.80
2019-03-10T06:48:37.315Z,46.63
2019-03-10T06:51:06.881Z,46.71
2019-03-10T06:53:36.407Z,46.44
2019-03-10T06:56:05.992Z,46.50
2019-03-10T06:58:40.097Z,46.26
2019-03-10T07:01:09.593Z,46.44
2019-03-10T07:03:39.152Z,46.02
2019-03-10T07:06:08.918Z,45.78
2019-03-10T07:08:38.819Z,45.79
2019-03-10T07:11:08.362Z,45.63
2019-03-10T07:13:39.691Z,45.72
2019-03-10T07:16:09.301Z,45.72
2019-03-10T07:18:38.869Z,45.00
2019-03-10T07:21:08.550Z,44.60
2019-03-10T07:23:38.032Z,44.45
2019-03-10T07:26:08.152Z,44.03
2019-03-10T07:28:49.179Z,44.33
2019-03-10T07:31:28.690Z,43.90
2019-03-10T07:34:19.853Z,43.70
2019-03-10T07:37:11.485Z,43.49
2019-03-10T07:40:02.138Z,43.50
2019-03-10T07:42:37.140Z,42.79
2019-03-10T07:45:32.679Z,41.79
2019-03-10T07:48:24.201Z,41.27
2019-03-10T07:51:08.792Z,41.19
2019-03-10T07:53:57.335Z,40.85
2019-03-10T07:56:45.743Z,38.13
2019-03-10T07:59:32.983Z,36.68
2019-03-10T08:02:20.407Z,36.39
2019-03-10T08:05:02.254Z,36.24
2019-03-10T08:07:45.953Z,39.04
2019-03-10T08:10:47.114Z,38.39
2019-03-10T08:13:38.677Z,36.51
2019-03-10T08:16:26.045Z,35.62
2019-03-10T08:19:17.424Z,35.38
2019-03-10T08:22:14.737Z,35.24
2019-03-10T08:25:01.793Z,34.96
2019-03-10T08:27:39.845Z,34.70
2019-03-10T08:30:31.793Z,34.71
2019-03-10T08:33:18.835Z,34.69
2019-03-10T08:36:10.126Z,34.79
2019-03-10T08:38:56.705Z,35.05
2019-03-10T08:41:44.257Z,34.80
2019-03-10T08:44:22.141Z,35.05
2019-03-10T08:47:13.654Z,35.00
2019-03-10T08:50:07.970Z,34.91
2019-03-10T08:52:52.419Z,34.72
2019-03-10T08:55:32.648Z,34.76
2019-03-10T08:58:30.378Z,34.76
2019-03-10T09:01:18.803Z,34.33
2019-03-10T09:03:56.333Z,34.82
2019-03-10T09:06:53.752Z,34.55
2019-03-10T09:09:42.219Z,34.56
2019-03-10T09:12:17.003Z,34.65
2019-03-10T09:15:04.554Z,34.46
2019-03-10T09:17:56.114Z,34.19
2019-03-10T09:20:48.790Z,34.09
2019-03-10T09:23:45.854Z,34.17
2019-03-10T09:26:37.376Z,34.01
2019-03-10T09:29:20.182Z,33.54
2019-03-10T09:32:07.358Z,33.43
2019-03-10T09:35:08.008Z,32.70
2019-03-10T09:38:14.832Z,32.78
2019-03-10T09:40:58.561Z,32.75
2019-03-10T09:43:45.371Z,32.42
2019-03-10T09:46:33.799Z,32.37
2019-03-10T09:49:28.339Z,32.21
2019-03-10T09:52:15.330Z,32.28
2019-03-10T09:54:56.496Z,32.38
2019-03-10T09:57:33.592Z,32.03
2019-03-10T10:00:31.382Z,31.96
2019-03-10T10:03:14.371Z,32.28
2019-03-10T10:05:59.359Z,32.25
2019-03-10T10:09:06.418Z,32.24
2019-03-10T10:11:57.686Z,32.27
2019-03-10T10:14:37.200Z,31.29
2019-03-10T10:17:31.413Z,31.18
2019-03-10T10:20:16.352Z,31.04
2019-03-10T10:22:55.380Z,31.27
2019-03-10T10:25:29.893Z,30.92
2019-03-10T10:28:33.352Z,31.11
2019-03-10T10:31:20.614Z,31.01
2019-03-10T10:34:07.681Z,30.98
2019-03-10T10:37:08.181Z,30.89
2019-03-10T10:40:11.711Z,30.75
2019-03-10T10:43:08.992Z,29.81
2019-03-10T10:45:53.744Z,30.28
2019-03-10T10:48:35.797Z,30.64
2019-03-10T10:51:30.771Z,30.67
2019-03-10T10:54:21.201Z,30.15
2019-03-10T10:57:08.786Z,29.44
2019-03-10T10:59:49.928Z,28.57
2019-03-10T11:02:30.464Z,28.69
2019-03-10T11:05:25.063Z,29.11
2019-03-10T11:08:09.915Z,29.30
2019-03-10T11:10:57.158Z,29.00
2019-03-10T11:13:36.166Z,28.74
2019-03-10T11:16:13.995Z,28.23
2019-03-10T11:18:50.027Z,27.91
2019-03-10T11:21:38.107Z,28.53
2019-03-10T11:24:15.279Z,28.48
2019-03-10T11:27:03.776Z,28.70
2019-03-10T11:29:47.552Z,28.94
2019-03-10T11:32:51.365Z,28.62
2019-03-10T11:35:48.527Z,28.38
2019-03-10T11:38:30.828Z,28.00
2019-03-10T11:41:10.036Z,27.63
2019-03-10T11:44:07.437Z,26.89
2019-03-10T11:47:04.941Z,27.17
2019-03-10T11:49:39.501Z,27.38
2019-03-10T11:52:31.130Z,27.19
2019-03-10T11:55:19.647Z,27.20
2019-03-10T11:58:03.119Z,27.38
2019-03-10T12:01:03.680Z,27.23
2019-03-10T12:03:40.886Z,27.03
2019-03-10T12:06:19.031Z,26.98
2019-03-10T12:09:06.423Z,27.14
2019-03-10T12:11:35.910Z,26.55
2019-03-10T12:14:05.356Z,26.79
2019-03-10T12:16:34.824Z,26.45
2019-03-10T12:19:04.338Z,26.71
2019-03-10T12:21:33.867Z,26.69
2019-03-10T12:24:03.423Z,26.40
2019-03-10T12:26:32.946Z,25.92
2019-03-10T12:29:02.434Z,25.77
2019-03-10T12:31:31.913Z,25.96
2019-03-10T12:34:01.458Z,25.59
2019-03-10T12:36:31.005Z,25.42
2019-03-10T12:39:00.449Z,25.32
2019-03-10T12:41:29.994Z,25.67
2019-03-10T12:43:59.463Z,25.58
2019-03-10T12:46:28.922Z,25.57
2019-03-10T12:48:58.435Z,25.57
2019-03-10T12:51:27.932Z,25.26
2019-03-10T12:53:57.438Z,25.46
2019-03-10T12:56:26.908Z,24.99
2019-03-10T12:58:56.391Z,25.22
2019-03-10T13:01:25.861Z,25.40
2019-03-10T13:03:59.079Z,25.46
2019-03-10T13:06:26.501Z,25.39
2019-03-10T13:08:55.976Z,25.14
2019-03-10T13:11:25.425Z,25.52
2019-03-10T13:13:54.912Z,25.40
2019-03-10T13:16:24.424Z,25.18
2019-03-10T13:18:54.128Z,24.70
2019-03-10T13:21:25.989Z,24.22
2019-03-10T13:23:54.866Z,23.67
2019-03-10T13:26:24.345Z,23.89
2019-03-10T13:28:53.895Z,23.82
2019-03-10T13:31:23.451Z,23.85
2019-03-10T13:33:52.950Z,23.65
2019-03-10T13:36:22.690Z,23.95
2019-03-10T13:38:52.167Z,23.51
2019-03-10T13:41:21.668Z,23.49
2019-03-10T13:43:51.150Z,23.61
2019-03-10T13:46:20.627Z,23.42
2019-03-10T13:48:50.133Z,23.65
2019-03-10T13:51:19.669Z,23.74
2019-03-10T13:53:49.145Z,23.69
2019-03-10T13:56:18.680Z,23.86
2019-03-10T13:58:48.190Z,24.00
2019-03-10T14:01:17.634Z,23.64
2019-03-10T14:03:47.096Z,23.40
2019-03-10T14:06:16.625Z,23.27
2019-03-10T14:08:46.096Z,23.19
2019-03-10T14:11:15.534Z,22.90
2019-03-10T14:13:45.008Z,22.62
2019-03-10T14:16:14.502Z,22.15
2019-03-10T14:18:43.971Z,22.52
2019-03-10T14:21:13.448Z,22.45
2019-03-10T14:23:42.998Z,22.50
2019-03-10T14:26:12.486Z,22.83
2019-03-10T14:28:41.997Z,22.73
2019-03-10T14:31:11.466Z,22.74
2019-03-10T14:33:40.920Z,22.71
2019-03-10T14:36:10.446Z,22.46
2019-03-10T14:38:39.975Z,22.41
2019-03-10T14:41:09.464Z,23.15
2019-03-10T14:43:38.918Z,23.44
2019-03-10T14:46:08.366Z,23.74
2019-03-10T14:48:37.851Z,24.05
2019-03-10T14:51:08.869Z,23.45
2019-03-10T14:53:38.346Z,23.25
2019-03-10T14:56:07.838Z,23.22
2019-03-10T14:58:37.342Z,23.10
2019-03-10T15:01:06.901Z,23.02
2019-03-10T15:03:36.377Z,22.81
2019-03-10T15:06:05.821Z,22.97
2019-03-10T15:08:35.338Z,23.19
2019-03-10T15:11:04.800Z,23.17
2019-03-10T15:13:34.298Z,23.14
2019-03-10T15:16:03.773Z,23.23
2019-03-10T15:18:33.559Z,23.06
2019-03-10T15:21:03.057Z,22.73
2019-03-10T15:23:32.543Z,22.15
2019-03-10T15:26:02.032Z,21.15
2019-03-10T15:28:31.575Z,20.67
2019-03-10T15:31:02.102Z,20.13
2019-03-10T15:33:31.576Z,20.19
2019-03-10T15:36:01.046Z,19.63
2019-03-10T15:38:30.858Z,19.85
2019-03-10T15:41:00.332Z,20.03
2019-03-10T15:43:29.775Z,20.94
2019-03-10T15:45:59.266Z,21.00
2019-03-10T15:48:28.764Z,21.43
2019-03-10T15:50:58.220Z,21.26
2019-03-10T15:53:27.725Z,21.46
2019-03-10T15:55:57.234Z,21.62
2019-03-10T15:58:26.738Z,21.71
2019-03-10T16:00:56.273Z,21.54
2019-03-10T16:03:25.792Z,21.78
2019-03-10T16:05:55.262Z,21.89
2019-03-10T16:08:24.733Z,21.18
2019-03-10T16:10:54.271Z,20.89
2019-03-10T16:13:23.805Z,20.55
2019-03-10T16:15:53.310Z,20.29
2019-03-10T16:18:22.820Z,20.05
2019-03-10T16:20:52.326Z,19.93
2019-03-10T16:23:21.857Z,19.94
2019-03-10T16:25:51.406Z,19.93
2019-03-10T16:28:20.879Z,19.83
2019-03-10T16:30:50.404Z,20.00
2019-03-10T16:33:19.926Z,20.03
2019-03-10T16:35:49.443Z,20.13
2019-03-10T16:38:19.080Z,20.00
2019-03-10T16:40:48.554Z,19.93
2019-03-10T16:43:18.059Z,19.97
2019-03-10T16:45:47.561Z,20.14
2019-03-10T16:48:17.108Z,20.45
2019-03-10T16:50:46.600Z,20.42
2019-03-10T16:53:16.090Z,20.48
2019-03-10T16:55:45.570Z,20.95
2019-03-10T16:58:15.144Z,21.77
2019-03-10T17:00:44.674Z,21.73
2019-03-10T17:03:14.161Z,22.49
2019-03-10T17:05:43.631Z,22.54
2019-03-10T17:08:13.109Z,22.97
2019-03-10T17:10:42.591Z,22.69
2019-03-10T17:13:12.078Z,23.58
2019-03-10T17:15:41.560Z,23.96
2019-03-10T17:18:11.041Z,24.50
2019-03-10T17:20:40.536Z,24.83
2019-03-10T17:23:10.024Z,24.73
2019-03-10T17:25:39.510Z,25.41
2019-03-10T17:28:08.984Z,25.69
2019-03-10T17:30:38.472Z,25.75
2019-03-10T17:33:07.968Z,26.26
2019-03-10T17:35:37.463Z,26.05
2019-03-10T17:38:06.935Z,26.22
2019-03-10T17:40:36.478Z,26.39
2019-03-10T17:43:07.904Z,26.42
2019-03-10T17:45:37.229Z,26.45
2019-03-10T17:48:08.045Z,26.58
2019-03-10T17:50:37.493Z,26.68
2019-03-10T17:53:07.592Z,26.60
2019-03-10T17:55:37.283Z,26.70
2019-03-10T17:58:06.781Z,26.66
2019-03-10T18:00:36.533Z,26.87
2019-03-10T18:03:06.110Z,26.79
2019-03-10T18:05:35.637Z,26.41
2019-03-10T18:08:05.514Z,26.23
2019-03-10T18:10:34.997Z,26.33
2019-03-10T18:13:04.654Z,26.65
2019-03-10T18:15:34.132Z,26.78
2019-03-10T18:18:03.655Z,27.03
2019-03-10T18:20:33.544Z,26.63
2019-03-10T18:23:03.030Z,26.56
2019-03-10T18:25:32.524Z,26.74
2019-03-10T18:28:01.989Z,26.81
2019-03-10T18:30:31.640Z,26.49
2019-03-10T18:33:01.125Z,26.19
2019-03-10T18:35:30.588Z,26.03
2019-03-10T18:38:00.106Z,25.89
2019-03-10T18:40:29.663Z,25.76
2019-03-10T18:42:59.156Z,25.70
2019-03-10T18:45:28.634Z,25.73
2019-03-10T18:47:58.131Z,25.75
2019-03-10T18:50:27.655Z,25.61
2019-03-10T18:52:57.147Z,25.52
2019-03-10T18:55:26.601Z,25.71
2019-03-10T18:57:56.052Z,25.87
2019-03-10T19:00:25.531Z,26.01
2019-03-10T19:02:55.222Z,26.12
2019-03-10T19:05:24.664Z,26.19
2019-03-10T19:07:54.173Z,26.48
2019-03-10T19:10:23.641Z,26.66
2019-03-10T19:12:53.138Z,26.73
2019-03-10T19:15:22.612Z,26.89
2019-03-10T19:17:52.046Z,27.03
2019-03-10T19:20:21.550Z,27.25
2019-03-10T19:22:51.024Z,27.40
2019-03-10T19:25:20.652Z,27.56
2019-03-10T19:27:50.146Z,27.70
2019-03-10T19:30:19.649Z,27.73
2019-03-10T19:32:49.098Z,27.93
2019-03-10T19:35:18.631Z,27.96
2019-03-10T19:37:48.123Z,28.12
2019-03-10T19:40:17.610Z,28.40
2019-03-10T19:42:47.106Z,28.49
2019-03-10T19:45:16.979Z,28.70
2019-03-10T19:47:46.464Z,28.80
2019-03-10T19:50:16.310Z,28.90
2019-03-10T19:52:45.905Z,29.13
2019-03-10T19:55:15.721Z,29.18
2019-03-10T19:57:45.259Z,28.96
2019-03-10T20:00:16.151Z,28.98
2019-03-10T20:02:45.603Z,28.85
2019-03-10T20:05:15.471Z,29.12
2019-03-10T20:07:45.214Z,29.18
2019-03-10T20:10:14.974Z,29.49
2019-03-10T20:12:44.473Z,29.58
2019-03-10T20:15:15.732Z,29.22
2019-03-10T20:17:45.583Z,29.05
2019-03-10T20:20:16.248Z,28.97
2019-03-10T20:22:45.740Z,29.01
2019-03-10T20:25:16.259Z,28.96
2019-03-10T20:27:45.864Z,29.18
2019-03-10T20:30:17.080Z,29.27
2019-03-10T20:32:46.574Z,28.61
2019-03-10T20:35:16.170Z,27.96
2019-03-10T20:37:45.699Z,27.77
2019-03-10T20:40:16.164Z,27.82
2019-03-10T20:42:45.718Z,27.57
2019-03-10T20:45:15.441Z,27.70
2019-03-10T20:47:44.978Z,27.72
2019-03-10T20:50:14.991Z,27.74
2019-03-10T20:52:44.536Z,28.13
2019-03-10T20:55:14.108Z,27.79
2019-03-10T20:57:43.598Z,27.85
2019-03-10T21:00:15.318Z,27.45
2019-03-10T21:02:44.806Z,27.35
2019-03-10T21:05:14.273Z,27.11
2019-03-10T21:07:43.747Z,27.32
2019-03-10T21:10:14.553Z,27.34
2019-03-10T21:12:44.028Z,27.56
2019-03-10T21:15:17.572Z,27.58
2019-03-10T21:17:47.072Z,27.40
2019-03-10T21:20:17.505Z,27.33
2019-03-10T21:22:47.086Z,27.58
2019-03-10T21:25:20.892Z,27.60
2019-03-10T21:27:50.343Z,27.81
2019-03-10T21:30:21.570Z,27.69
2019-03-10T21:32:51.015Z,27.75
2019-03-10T21:35:20.487Z,27.86
2019-03-10T21:37:49.970Z,27.99
2019-03-10T21:40:21.018Z,27.94
2019-03-10T21:42:50.823Z,28.12
2019-03-10T21:45:20.323Z,28.44
2019-03-10T21:47:49.991Z,28.63
2019-03-10T21:50:19.583Z,28.88
2019-03-10T21:52:49.014Z,28.97
2019-03-10T21:55:18.498Z,29.22
2019-03-10T21:57:48.002Z,29.60
2019-03-10T22:00:17.472Z,29.89
2019-03-10T22:02:47.170Z,30.20
2019-03-10T22:05:16.738Z,30.41
2019-03-10T22:07:46.423Z,30.63
2019-03-10T22:10:26.096Z,30.87
2019-03-10T22:12:47.263Z,30.86
2019-03-10T22:15:17.013Z,31.03
2019-03-10T22:17:46.505Z,31.09
2019-03-10T22:20:16.003Z,31.28
2019-03-10T22:22:49.349Z,31.38
2019-03-10T22:25:16.961Z,31.51
2019-03-10T22:27:46.657Z,31.62
2019-03-10T22:30:17.058Z,31.64
2019-03-10T22:32:46.603Z,31.74
2019-03-10T22:35:16.093Z,31.88
2019-03-10T22:37:45.901Z,32.07
2019-03-10T22:40:15.585Z,32.38
2019-03-10T22:42:45.102Z,32.52
2019-03-10T22:45:15.426Z,32.48
2019-03-10T22:47:44.922Z,32.57
2019-03-10T22:50:14.559Z,32.58
2019-03-10T22:52:44.355Z,32.57
2019-03-10T22:55:14.057Z,32.65
2019-03-10T22:57:43.617Z,32.76
2019-03-10T23:00:18.428Z,32.84
2019-03-10T23:02:47.923Z,33.00
2019-03-10T23:05:17.459Z,33.07
2019-03-10T23:07:46.940Z,33.24
2019-03-10T23:10:16.823Z,33.40
2019-03-10T23:12:46.323Z,33.60
2019-03-10T23:15:15.908Z,33.79
2019-03-10T23:17:45.390Z,33.96
2019-03-10T23:20:15.762Z,34.15
2019-03-10T23:22:45.307Z,34.25
2019-03-10T23:25:14.913Z,34.37
2019-03-10T23:27:44.579Z,34.31
2019-03-10T23:30:15.230Z,34.26
2019-03-10T23:32:44.681Z,34.21
2019-03-10T23:35:14.479Z,34.30
2019-03-10T23:37:43.957Z,34.33
2019-03-10T23:40:13.481Z,34.32
2019-03-10T23:42:43.061Z,34.46
2019-03-10T23:45:12.846Z,34.40
2019-03-10T23:47:42.284Z,34.39
2019-03-10T23:50:11.923Z,34.40
2019-03-10T23:52:41.371Z,34.44
2019-03-10T23:55:11.058Z,34.58
2019-03-10T23:57:40.512Z,34.77
